createdAt,value
2022-11-03T00:00:12.926Z,12.53
2022-11-03T00:03:02.441Z,13.20
2022-11-03T00:06:07.079Z,13.87
2022-11-03T00:09:00.239Z,13.23
2022-11-03T00:11:52.165Z,14.27
2022-11-03T00:14:42.920Z,12.03
2022-11-03T00:17:32.143Z,14.43
2022-11-03T00:20:21.442Z,13.97
2022-11-03T00:23:10.659Z,13.43
2022-11-03T00:26:09.138Z,13.80
2022-11-03T00:29:01.343Z,14.77
2022-11-03T00:31:52.181Z,12.93
2022-11-03T00:34:41.530Z,16.73
2022-11-03T00:37:30.692Z,15.63
2022-11-03T00:40:19.980Z,14.33
2022-11-03T00:43:09.839Z,13.37
2022-11-03T00:46:00.381Z,14.87
2022-11-03T00:48:51.120Z,15.13
2022-11-03T00:51:41.220Z,14.33
2022-11-03T00:54:30.412Z,13.50
2022-11-03T00:57:19.679Z,14.23
2022-11-03T01:00:10.320Z,16.17
2022-11-03T01:02:59.558Z,17.70
2022-11-03T01:06:07.760Z,15.10
2022-11-03T01:08:57.678Z,15.03
2022-11-03T01:11:55.380Z,13.53
2022-11-03T01:14:46.407Z,15.87
2022-11-03T01:17:35.742Z,15.63
2022-11-03T01:20:25.068Z,14.10
2022-11-03T01:23:15.704Z,16.20
2022-11-03T01:26:06.619Z,15.13
2022-11-03T01:28:56.120Z,14.07
2022-11-03T01:31:46.106Z,13.03
2022-11-03T01:34:35.358Z,13.77
2022-11-03T01:37:26.267Z,13.70
2022-11-03T01:40:16.979Z,13.47
2022-11-03T01:43:19.794Z,12.73
2022-11-03T01:46:14.959Z,13.53
2022-11-03T01:49:10.876Z,14.63
2022-11-03T01:52:04.580Z,15.27
2022-11-03T01:54:59.362Z,13.07
2022-11-03T01:57:55.447Z,12.43
2022-11-03T02:00:47.961Z,12.93
2022-11-03T02:03:51.469Z,12.60
2022-11-03T02:06:41.204Z,12.07
2022-11-03T02:09:31.549Z,11.07
2022-11-03T02:12:23.809Z,11.73
2022-11-03T02:15:17.043Z,12.07
2022-11-03T02:18:06.940Z,11.83
2022-11-03T02:21:04.818Z,11.43
2022-11-03T02:24:00.760Z,10.50
2022-11-03T02:26:56.547Z,10.83
2022-11-03T02:29:45.984Z,11.60
2022-11-03T02:32:41.251Z,11.43
2022-11-03T02:35:35.308Z,11.57
2022-11-03T02:38:28.321Z,12.17
2022-11-03T02:41:19.541Z,11.97
2022-11-03T02:44:15.900Z,11.07
2022-11-03T02:47:08.623Z,12.67
2022-11-03T02:49:58.096Z,11.73
2022-11-03T02:52:48.722Z,11.03
2022-11-03T02:55:40.379Z,11.07
2022-11-03T02:58:36.300Z,10.30
2022-11-03T03:01:35.190Z,12.53
2022-11-03T03:04:29.920Z,11.10
2022-11-03T03:07:23.478Z,11.73
2022-11-03T03:10:17.340Z,12.03
2022-11-03T03:13:09.464Z,11.57
2022-11-03T03:16:09.759Z,11.30
2022-11-03T03:19:06.162Z,11.53
2022-11-03T03:21:57.700Z,11.37
2022-11-03T03:24:53.371Z,11.97
2022-11-03T03:27:46.379Z,10.63
2022-11-03T03:30:37.499Z,10.67
2022-11-03T03:36:27.560Z,12.83
2022-11-03T03:39:18.769Z,9.90
2022-11-03T03:42:10.661Z,11.53
2022-11-03T03:45:01.283Z,11.40
2022-11-03T03:47:56.403Z,10.53
2022-11-03T03:50:49.040Z,10.57
2022-11-03T03:53:39.890Z,10.07
2022-11-03T03:56:34.079Z,10.70
2022-11-03T03:59:23.360Z,10.73
2022-11-03T04:02:13.365Z,10.70
2022-11-03T04:05:02.810Z,11.10
2022-11-03T04:07:52.137Z,10.93
2022-11-03T04:11:02.963Z,10.60
2022-11-03T04:14:09.440Z,9.93
2022-11-03T04:17:16.141Z,11.87
2022-11-03T04:20:23.519Z,10.30
2022-11-03T04:23:12.720Z,10.00
2022-11-03T04:26:03.469Z,10.77
2022-11-03T04:28:54.566Z,10.20
2022-11-03T04:31:44.121Z,11.07
2022-11-03T04:34:33.299Z,10.87
2022-11-03T04:37:24.859Z,10.03
2022-11-03T04:40:17.856Z,8.47
2022-11-03T04:43:13.820Z,10.87
2022-11-03T04:46:04.315Z,8.13
2022-11-03T04:48:54.921Z,8.53
2022-11-03T04:51:44.619Z,10.27
2022-11-03T04:54:33.830Z,8.93
2022-11-03T04:57:22.979Z,8.70
2022-11-03T05:00:19.327Z,8.83
2022-11-03T05:03:18.120Z,8.33
2022-11-03T05:06:14.207Z,9.43
2022-11-03T05:09:12.509Z,8.80
2022-11-03T05:12:01.704Z,9.37
2022-11-03T05:14:57.001Z,9.80
2022-11-03T05:17:49.023Z,10.70
2022-11-03T05:20:44.179Z,9.97
2022-11-03T05:23:40.797Z,8.63
2022-11-03T05:26:34.465Z,10.23
2022-11-03T05:29:27.009Z,10.07
2022-11-03T05:32:20.849Z,9.63
2022-11-03T05:35:21.067Z,8.73
2022-11-03T05:38:17.274Z,7.60
2022-11-03T05:41:16.201Z,9.07
2022-11-03T05:44:18.522Z,9.50
2022-11-03T05:47:15.600Z,9.27
2022-11-03T05:50:20.239Z,8.17
2022-11-03T05:53:28.579Z,8.73
2022-11-03T05:56:21.753Z,9.23
2022-11-03T05:59:15.119Z,8.90
2022-11-03T06:02:07.228Z,8.10
2022-11-03T06:04:56.800Z,7.47
2022-11-03T06:07:48.283Z,7.30
2022-11-03T06:10:41.649Z,7.47
2022-11-03T06:13:34.899Z,7.63
2022-11-03T06:16:39.134Z,6.83
2022-11-03T06:19:31.641Z,8.27
2022-11-03T06:22:23.959Z,8.53
2022-11-03T06:25:24.190Z,7.03
2022-11-03T06:28:20.170Z,7.50
2022-11-03T06:31:22.908Z,8.03
2022-11-03T06:34:27.879Z,7.70
2022-11-03T06:37:29.120Z,8.23
2022-11-03T06:40:38.829Z,8.67
2022-11-03T06:43:33.086Z,7.27
2022-11-03T06:46:25.220Z,8.43
2022-11-03T06:49:29.319Z,7.13
2022-11-03T06:52:31.859Z,7.70
2022-11-03T06:55:27.900Z,7.37
2022-11-03T06:58:26.800Z,7.60
2022-11-03T07:01:20.273Z,7.13
2022-11-03T07:04:20.400Z,6.83
2022-11-03T07:07:10.441Z,7.53
2022-11-03T07:09:59.740Z,7.83
2022-11-03T07:12:49.739Z,7.77
2022-11-03T07:15:40.549Z,7.60
2022-11-03T07:18:33.321Z,8.80
2022-11-03T07:21:32.703Z,7.20
2022-11-03T07:24:26.523Z,7.90
2022-11-03T07:27:22.609Z,7.77
2022-11-03T07:30:21.837Z,7.60
2022-11-03T07:33:21.189Z,7.13
2022-11-03T07:36:17.066Z,7.17
2022-11-03T07:39:08.007Z,7.80
2022-11-03T07:41:57.307Z,6.97
2022-11-03T07:44:47.278Z,7.37
2022-11-03T07:47:36.548Z,8.00
2022-11-03T07:50:27.309Z,7.93
2022-11-03T07:53:24.891Z,8.03
2022-11-03T07:56:22.115Z,8.37
2022-11-03T07:59:18.155Z,7.37
2022-11-03T08:02:26.676Z,7.67
2022-11-03T08:05:16.151Z,6.93
2022-11-03T08:08:07.192Z,6.40
2022-11-03T08:10:56.720Z,6.07
2022-11-03T08:13:46.048Z,6.43
2022-11-03T08:16:35.420Z,7.20
2022-11-03T08:19:24.592Z,6.53
2022-11-03T08:22:13.880Z,7.10
2022-11-03T08:25:04.739Z,6.43
2022-11-03T08:27:53.960Z,6.77
2022-11-03T08:30:43.321Z,6.23
2022-11-03T08:33:33.184Z,7.30
2022-11-03T08:36:22.756Z,6.47
2022-11-03T08:39:12.342Z,6.40
2022-11-03T08:42:03.175Z,6.03
2022-11-03T08:44:52.463Z,6.00
2022-11-03T08:47:41.707Z,5.67
2022-11-03T08:50:30.959Z,5.50
2022-11-03T08:53:20.689Z,5.30
2022-11-03T08:56:12.473Z,5.20
2022-11-03T08:59:04.617Z,5.10
2022-11-03T09:01:53.937Z,5.27
2022-11-03T09:04:43.236Z,4.77
2022-11-03T09:10:42.663Z,5.30
2022-11-03T09:13:32.449Z,4.87
2022-11-03T09:16:23.199Z,4.43
2022-11-03T09:19:12.467Z,4.67
2022-11-03T09:22:01.900Z,4.13
2022-11-03T09:24:51.161Z,4.47
2022-11-03T09:27:40.480Z,4.40
2022-11-03T09:30:29.843Z,5.10
2022-11-03T09:33:20.663Z,4.33
2022-11-03T09:36:10.688Z,4.53
2022-11-03T09:39:00.029Z,4.17
2022-11-03T09:41:58.506Z,4.50
2022-11-03T09:44:51.199Z,3.93
2022-11-03T09:47:42.983Z,4.20
2022-11-03T09:50:34.188Z,3.70
2022-11-03T09:53:23.629Z,4.10
2022-11-03T09:56:13.282Z,4.23
2022-11-03T09:59:02.627Z,3.67
2022-11-03T10:01:54.034Z,4.13
2022-11-03T10:04:43.392Z,3.97
2022-11-03T10:07:34.107Z,3.40
2022-11-03T10:10:23.967Z,3.50
2022-11-03T10:13:23.862Z,4.00
2022-11-03T10:16:17.140Z,3.67
2022-11-03T10:19:06.901Z,3.77
2022-11-03T10:21:56.159Z,3.20
2022-11-03T10:24:49.389Z,4.33
2022-11-03T10:27:38.759Z,3.40
2022-11-03T10:30:32.471Z,3.73
2022-11-03T10:33:32.750Z,3.43
2022-11-03T10:36:28.126Z,3.50
2022-11-03T10:39:31.269Z,2.90
2022-11-03T10:42:24.407Z,3.00
2022-11-03T10:45:17.827Z,3.40
2022-11-03T10:48:09.365Z,2.97
2022-11-03T10:50:59.100Z,3.13
2022-11-03T10:53:48.328Z,2.77
2022-11-03T10:56:37.899Z,3.43
2022-11-03T10:59:32.620Z,3.40
2022-11-03T11:02:23.886Z,2.97
2022-11-03T11:05:17.202Z,3.23
2022-11-03T11:08:06.777Z,2.93
2022-11-03T11:10:56.624Z,2.33
2022-11-03T11:13:46.307Z,2.43
2022-11-03T11:16:54.268Z,2.40
2022-11-03T11:20:29.882Z,2.43
2022-11-03T11:23:53.105Z,2.80
2022-11-03T11:26:42.848Z,2.50
2022-11-03T11:29:41.208Z,2.40
2022-11-03T11:33:00.851Z,2.37
2022-11-03T11:36:21.503Z,2.03
2022-11-03T11:39:13.222Z,2.63
2022-11-03T11:42:23.285Z,3.90
2022-11-03T11:45:12.659Z,2.80
2022-11-03T11:48:19.167Z,3.50
2022-11-03T11:51:12.302Z,3.20
2022-11-03T11:54:17.431Z,3.57
2022-11-03T11:57:21.259Z,2.73
2022-11-03T12:00:20.746Z,2.87
2022-11-03T12:03:10.595Z,3.10
2022-11-03T12:06:00.433Z,4.60
2022-11-03T12:08:49.799Z,5.80
2022-11-03T12:11:49.284Z,6.37
2022-11-03T12:14:41.069Z,3.40
2022-11-03T12:17:34.394Z,3.00
2022-11-03T12:20:47.399Z,3.37
2022-11-03T12:23:43.164Z,4.37
2022-11-03T12:26:46.227Z,6.10
2022-11-03T12:29:35.543Z,6.17
2022-11-03T12:32:32.706Z,5.67
2022-11-03T12:35:23.879Z,4.80
2022-11-03T12:38:13.161Z,3.70
2022-11-03T12:41:21.473Z,3.53
2022-11-03T12:44:12.306Z,2.73
2022-11-03T12:47:01.800Z,2.67
2022-11-03T12:49:51.495Z,2.63
2022-11-03T12:52:40.828Z,2.43
2022-11-03T12:55:30.092Z,2.40
2022-11-03T12:58:19.595Z,2.50
2022-11-03T13:01:11.161Z,2.40
2022-11-03T13:04:01.948Z,2.37
2022-11-03T13:06:51.318Z,2.60
2022-11-03T13:09:40.646Z,2.60
2022-11-03T13:12:33.197Z,2.80
2022-11-03T13:15:22.447Z,2.90
2022-11-03T13:18:14.420Z,2.40
2022-11-03T13:21:04.544Z,2.47
2022-11-03T13:23:54.579Z,2.33
2022-11-03T13:26:43.918Z,2.60
2022-11-03T13:29:35.681Z,2.70
2022-11-03T13:32:25.381Z,2.57
2022-11-03T13:35:17.000Z,2.53
2022-11-03T13:38:06.261Z,2.90
2022-11-03T13:41:05.217Z,2.50
2022-11-03T13:43:57.748Z,2.53
2022-11-03T13:46:47.059Z,2.77
2022-11-03T13:50:07.708Z,2.73
2022-11-03T13:52:47.385Z,2.57
2022-11-03T13:55:43.847Z,2.90
2022-11-03T14:01:43.846Z,2.53
2022-11-03T14:07:30.029Z,3.00
2022-11-03T14:10:20.880Z,2.90
2022-11-03T14:13:10.396Z,2.80
2022-11-03T14:15:59.977Z,2.90
2022-11-03T14:18:49.405Z,3.03
2022-11-03T14:21:42.040Z,3.13
2022-11-03T14:24:31.769Z,2.70
2022-11-03T14:27:22.607Z,3.20
2022-11-03T14:30:13.818Z,2.80
2022-11-03T14:33:03.123Z,2.83
2022-11-03T14:35:52.539Z,3.03
2022-11-03T14:38:45.052Z,2.90
2022-11-03T14:41:54.285Z,3.47
2022-11-03T14:44:46.353Z,2.83
2022-11-03T14:47:35.779Z,3.20
2022-11-03T14:50:25.120Z,3.10
2022-11-03T14:53:14.667Z,3.20
2022-11-03T14:56:03.961Z,2.90
2022-11-03T14:58:53.522Z,2.90
2022-11-03T15:01:44.519Z,3.10
2022-11-03T15:04:34.000Z,3.23
2022-11-03T15:07:23.541Z,2.90
2022-11-03T15:10:12.821Z,3.40
2022-11-03T15:13:02.279Z,3.83
2022-11-03T15:15:51.628Z,3.37
2022-11-03T15:18:44.456Z,3.10
2022-11-03T15:21:34.137Z,3.80
2022-11-03T15:27:32.879Z,3.70
2022-11-03T15:30:23.443Z,4.13
2022-11-03T15:36:06.414Z,3.90
2022-11-03T15:38:55.860Z,4.27
2022-11-03T15:41:50.308Z,3.33
2022-11-03T15:44:39.565Z,3.57
2022-11-03T15:47:29.100Z,4.00
2022-11-03T15:50:18.520Z,3.80
2022-11-03T15:53:09.779Z,3.80
2022-11-03T15:55:59.401Z,3.77
2022-11-03T15:58:48.661Z,3.97
2022-11-03T16:01:38.205Z,3.87
2022-11-03T16:04:27.545Z,4.30
2022-11-03T16:07:16.948Z,3.67
2022-11-03T16:10:08.580Z,4.67
2022-11-03T16:12:57.929Z,4.13
2022-11-03T16:15:47.162Z,4.77
2022-11-03T16:18:37.649Z,4.07
2022-11-03T16:21:27.020Z,4.57
2022-11-03T16:24:16.780Z,5.30
2022-11-03T16:27:08.080Z,4.03
2022-11-03T16:29:57.312Z,4.27
2022-11-03T16:32:46.583Z,4.60
2022-11-03T16:35:35.943Z,4.27
2022-11-03T16:38:25.300Z,4.20
2022-11-03T16:41:14.761Z,3.87
2022-11-03T16:44:05.735Z,3.37
2022-11-03T16:50:07.380Z,4.80
2022-11-03T16:52:57.042Z,4.30
2022-11-03T16:55:47.587Z,4.53
2022-11-03T16:58:37.176Z,4.13
2022-11-03T17:01:28.412Z,4.40
2022-11-03T17:04:17.655Z,2.67
2022-11-03T17:07:06.835Z,3.27
2022-11-03T17:09:56.327Z,4.50
2022-11-03T17:12:45.785Z,5.00
2022-11-03T17:15:34.966Z,3.00
2022-11-03T17:18:25.774Z,3.93
2022-11-03T17:21:15.151Z,4.53
2022-11-03T17:24:07.024Z,4.80
2022-11-03T17:26:59.879Z,4.57
2022-11-03T17:29:53.632Z,5.33
2022-11-03T17:32:44.718Z,4.50
2022-11-03T17:35:39.718Z,6.87
2022-11-03T17:38:30.863Z,3.87
2022-11-03T17:41:20.135Z,5.00
2022-11-03T17:44:13.154Z,4.10
2022-11-03T17:47:03.036Z,3.20
2022-11-03T17:49:53.099Z,3.90
2022-11-03T17:52:47.688Z,4.30
2022-11-03T17:55:38.149Z,5.10
2022-11-03T17:58:31.017Z,4.80
2022-11-03T18:01:24.593Z,4.17
2022-11-03T18:07:19.616Z,5.40
2022-11-03T18:10:11.907Z,4.93
2022-11-03T18:13:20.091Z,5.03
2022-11-03T18:16:13.301Z,5.17
2022-11-03T18:19:03.320Z,5.30
2022-11-03T18:21:53.054Z,4.27
2022-11-03T18:24:43.172Z,5.07
2022-11-03T18:27:34.622Z,4.93
2022-11-03T18:30:23.886Z,4.47
2022-11-03T18:33:20.328Z,4.63
2022-11-03T18:36:11.847Z,4.10
2022-11-03T18:39:04.253Z,3.50
2022-11-03T18:41:54.280Z,4.20
2022-11-03T18:44:45.850Z,4.20
2022-11-03T18:47:35.659Z,4.23
2022-11-03T18:50:24.994Z,4.33
2022-11-03T18:53:16.291Z,4.93
2022-11-03T18:56:06.071Z,3.93
2022-11-03T18:58:56.970Z,4.43
2022-11-03T19:01:48.631Z,5.57
2022-11-03T19:04:41.112Z,4.13
2022-11-03T19:07:36.240Z,5.23
2022-11-03T19:10:25.970Z,4.73
2022-11-03T19:13:18.549Z,3.70
2022-11-03T19:16:16.293Z,5.20
2022-11-03T19:19:07.413Z,5.13
2022-11-03T19:21:57.380Z,4.67
2022-11-03T19:24:47.784Z,5.13
2022-11-03T19:27:40.318Z,5.13
2022-11-03T19:30:29.686Z,5.20
2022-11-03T19:33:22.609Z,4.73
2022-11-03T19:36:14.081Z,5.00
2022-11-03T19:39:04.679Z,5.40
2022-11-03T19:42:11.862Z,5.70
2022-11-03T19:45:03.824Z,5.77
2022-11-03T19:48:22.477Z,5.33
2022-11-03T19:51:09.101Z,5.77
2022-11-03T19:54:00.247Z,7.47
2022-11-03T19:56:51.148Z,6.50
2022-11-03T19:59:42.977Z,6.10
2022-11-03T20:02:33.219Z,7.77
2022-11-03T20:05:23.632Z,8.30
2022-11-03T20:08:21.716Z,8.50
2022-11-03T20:11:15.174Z,7.80
2022-11-03T20:14:05.445Z,7.87
2022-11-03T20:16:58.013Z,7.50
2022-11-03T20:19:47.642Z,8.50
2022-11-03T20:22:37.153Z,8.63
2022-11-03T20:25:28.638Z,8.40
2022-11-03T20:28:22.583Z,7.97
2022-11-03T20:31:13.552Z,11.93
2022-11-03T20:34:05.979Z,21.33
2022-11-03T20:36:56.180Z,15.80
2022-11-03T20:39:47.673Z,20.90
2022-11-03T20:42:37.392Z,10.73
2022-11-03T20:45:30.145Z,16.90
2022-11-03T20:48:20.463Z,16.07
2022-11-03T20:51:13.279Z,16.70
2022-11-03T20:54:04.597Z,20.57
2022-11-03T20:56:56.306Z,39.97
2022-11-03T20:59:45.767Z,46.43
2022-11-03T21:02:37.096Z,21.07
2022-11-03T21:05:31.099Z,19.27
2022-11-03T21:08:20.539Z,12.17
2022-11-03T21:11:27.322Z,13.00
2022-11-03T21:14:22.341Z,20.87
2022-11-03T21:17:33.178Z,16.20
2022-11-03T21:20:24.361Z,13.40
2022-11-03T21:23:21.560Z,9.40
2022-11-03T21:26:14.443Z,11.57
2022-11-03T21:29:03.748Z,12.53
2022-11-03T21:31:53.015Z,9.57
2022-11-03T21:34:42.838Z,16.10
2022-11-03T21:37:33.641Z,11.63
2022-11-03T21:40:22.848Z,10.40
2022-11-03T21:43:30.063Z,12.27
2022-11-03T21:46:19.241Z,9.10
2022-11-03T21:49:37.437Z,14.83
2022-11-03T21:52:33.087Z,12.00
2022-11-03T21:55:23.772Z,7.40
2022-11-03T21:58:13.064Z,8.20
2022-11-03T22:01:04.197Z,9.20
2022-11-03T22:03:53.486Z,6.73
2022-11-03T22:06:44.860Z,9.40
2022-11-03T22:09:34.315Z,9.93
2022-11-03T22:12:24.992Z,8.50
2022-11-03T22:15:31.533Z,10.73
2022-11-03T22:18:20.798Z,14.27
2022-11-03T22:21:28.320Z,10.53
2022-11-03T22:24:37.197Z,7.37
2022-11-03T22:27:29.293Z,13.00
2022-11-03T22:30:36.046Z,7.27
2022-11-03T22:33:29.517Z,8.23
2022-11-03T22:36:27.342Z,15.40
2022-11-03T22:39:35.961Z,10.90
2022-11-03T22:45:55.330Z,7.23
2022-11-03T22:48:44.703Z,9.23
2022-11-03T22:51:34.098Z,9.07
2022-11-03T22:54:23.547Z,9.60
2022-11-03T22:57:13.567Z,10.77
2022-11-03T23:00:05.978Z,7.67
2022-11-03T23:02:55.927Z,7.83
2022-11-03T23:05:45.191Z,6.70
2022-11-03T23:08:34.998Z,7.33
2022-11-03T23:11:26.225Z,8.77
2022-11-03T23:14:15.478Z,8.17
2022-11-03T23:17:06.261Z,9.80
2022-11-03T23:20:12.594Z,11.70
2022-11-03T23:23:01.948Z,7.90
2022-11-03T23:25:50.177Z,7.77
2022-11-03T23:28:40.132Z,6.63
2022-11-03T23:31:29.388Z,8.67
2022-11-03T23:34:19.998Z,9.90
2022-11-03T23:37:09.195Z,13.07
2022-11-03T23:39:58.399Z,13.67
2022-11-03T23:42:47.633Z,12.17
2022-11-03T23:45:55.130Z,13.27
2022-11-03T23:48:47.341Z,11.63
2022-11-03T23:51:39.321Z,10.30
2022-11-03T23:54:28.689Z,10.27
2022-11-03T23:57:35.215Z,13.40
